createdAt,value
2022-08-16T00:01:53.106Z,22.00
2022-08-16T00:04:23.640Z,21.90
2022-08-16T00:06:54.502Z,21.90
2022-08-16T00:09:22.891Z,21.90
2022-08-16T00:11:55.478Z,21.90
2022-08-16T00:14:31.329Z,21.80
2022-08-16T00:17:16.240Z,21.90
2022-08-16T00:19:46.666Z,21.90
2022-08-16T00:22:17.575Z,21.80
2022-08-16T00:24:51.410Z,21.80
2022-08-16T00:27:21.282Z,21.80
2022-08-16T00:30:00.909Z,21.80
2022-08-16T00:32:38.505Z,21.70
2022-08-16T00:35:11.016Z,21.70
2022-08-16T00:37:56.720Z,21.70
2022-08-16T00:40:43.623Z,21.70
2022-08-16T00:43:19.308Z,21.60
2022-08-16T00:45:58.331Z,21.60
2022-08-16T00:48:31.414Z,21.60
2022-08-16T00:51:00.841Z,21.60
2022-08-16T00:53:30.880Z,21.60
2022-08-16T00:56:05.226Z,21.60
2022-08-16T00:58:38.691Z,21.50
2022-08-16T01:01:08.005Z,21.50
2022-08-16T01:03:41.503Z,21.50
2022-08-16T01:06:32.681Z,21.50
2022-08-16T01:09:02.408Z,21.50
2022-08-16T01:11:32.672Z,21.40
2022-08-16T01:14:09.215Z,21.40
2022-08-16T01:16:38.607Z,21.40
2022-08-16T01:19:15.872Z,21.30
2022-08-16T01:21:54.006Z,21.30
2022-08-16T01:24:52.120Z,21.30
2022-08-16T01:27:21.701Z,21.30
2022-08-16T01:29:58.445Z,21.30
2022-08-16T01:32:33.554Z,21.20
2022-08-16T01:35:04.187Z,21.20
2022-08-16T01:37:40.257Z,21.10
2022-08-16T01:40:13.161Z,21.20
2022-08-16T01:42:44.407Z,21.10
2022-08-16T01:45:19.819Z,21.00
2022-08-16T01:47:52.039Z,21.10
2022-08-16T01:50:42.806Z,21.10
2022-08-16T01:53:11.038Z,21.10
2022-08-16T01:55:42.812Z,21.10
2022-08-16T01:58:23.687Z,21.10
2022-08-16T02:00:52.043Z,21.10
2022-08-16T02:03:24.347Z,21.10
2022-08-16T02:05:54.967Z,21.10
2022-08-16T02:08:33.266Z,21.10
2022-08-16T02:11:08.557Z,21.00
2022-08-16T02:13:41.650Z,21.00
2022-08-16T02:16:18.824Z,21.00
2022-08-16T02:18:47.361Z,20.90
2022-08-16T02:21:16.506Z,20.80
2022-08-16T02:23:44.640Z,20.80
2022-08-16T02:26:18.948Z,20.80
2022-08-16T02:28:47.400Z,20.80
2022-08-16T02:31:16.458Z,20.80
2022-08-16T02:33:49.978Z,20.60
2022-08-16T02:36:42.500Z,20.60
2022-08-16T02:39:10.401Z,20.60
2022-08-16T02:41:43.371Z,20.60
2022-08-16T02:44:13.613Z,20.60
2022-08-16T02:46:50.301Z,20.60
2022-08-16T02:49:21.984Z,20.60
2022-08-16T02:52:00.222Z,20.60
2022-08-16T02:54:29.325Z,20.60
2022-08-16T02:56:58.757Z,20.60
2022-08-16T02:59:28.188Z,20.50
2022-08-16T03:02:08.910Z,20.50
2022-08-16T03:04:50.859Z,20.50
2022-08-16T03:07:27.756Z,20.50
2022-08-16T03:09:57.103Z,20.50
2022-08-16T03:12:36.636Z,20.50
2022-08-16T03:15:06.749Z,20.50
2022-08-16T03:17:36.714Z,20.50
2022-08-16T03:20:21.567Z,20.50
2022-08-16T03:23:01.690Z,20.50
2022-08-16T03:25:41.114Z,20.40
2022-08-16T03:28:14.443Z,20.40
2022-08-16T03:30:45.684Z,20.40
2022-08-16T03:33:15.937Z,20.40
2022-08-16T03:35:44.142Z,20.40
2022-08-16T03:38:32.544Z,20.30
2022-08-16T03:41:04.257Z,20.30
2022-08-16T03:43:51.632Z,20.30
2022-08-16T03:46:47.420Z,20.20
2022-08-16T03:49:12.308Z,20.20
2022-08-16T03:51:40.919Z,20.20
2022-08-16T03:54:12.746Z,20.10
2022-08-16T03:56:56.974Z,20.10
2022-08-16T03:59:29.301Z,20.10
2022-08-16T04:01:58.104Z,20.10
2022-08-16T04:04:33.515Z,20.10
2022-08-16T04:07:04.048Z,20.00
2022-08-16T04:09:35.592Z,20.00
2022-08-16T04:12:11.264Z,20.00
2022-08-16T04:14:54.400Z,20.00
2022-08-16T04:17:24.244Z,20.00
2022-08-16T04:19:58.158Z,20.00
2022-08-16T04:22:28.133Z,19.90
2022-08-16T04:24:57.060Z,20.00
2022-08-16T04:27:28.830Z,19.90
2022-08-16T04:30:02.751Z,19.90
2022-08-16T04:32:31.688Z,19.90
2022-08-16T04:35:03.461Z,19.90
2022-08-16T04:37:42.026Z,19.90
2022-08-16T04:40:21.494Z,19.90
2022-08-16T04:42:50.608Z,19.90
2022-08-16T04:45:35.967Z,19.90
2022-08-16T04:48:05.546Z,19.90
2022-08-16T04:50:34.004Z,19.90
2022-08-16T04:53:02.009Z,19.90
2022-08-16T04:55:38.345Z,19.90
2022-08-16T04:58:44.646Z,19.90
2022-08-16T05:00:59.949Z,19.90
2022-08-16T05:03:28.267Z,20.00
2022-08-16T05:05:59.700Z,20.00
2022-08-16T05:08:31.302Z,20.00
2022-08-16T05:11:01.301Z,20.10
2022-08-16T05:13:40.262Z,20.10
2022-08-16T05:16:16.611Z,20.20
2022-08-16T05:18:48.959Z,20.30
2022-08-16T05:21:16.996Z,20.40
2022-08-16T05:23:55.963Z,20.50
2022-08-16T05:26:29.429Z,20.50
2022-08-16T05:28:59.181Z,20.60
2022-08-16T05:31:30.578Z,20.70
2022-08-16T05:34:01.086Z,20.70
2022-08-16T05:36:36.036Z,20.80
2022-08-16T05:39:07.709Z,20.90
2022-08-16T05:41:44.801Z,21.00
2022-08-16T05:44:22.523Z,21.10
2022-08-16T05:46:56.006Z,21.30
2022-08-16T05:49:24.329Z,21.50
2022-08-16T05:51:55.352Z,21.70
2022-08-16T05:54:25.656Z,21.90
2022-08-16T05:56:55.866Z,22.00
2022-08-16T05:59:24.594Z,22.20
2022-08-16T06:01:56.848Z,22.50
2022-08-16T06:04:34.867Z,22.60
2022-08-16T06:07:08.221Z,22.70
2022-08-16T06:09:43.292Z,22.80
2022-08-16T06:12:27.517Z,22.80
2022-08-16T06:15:04.310Z,23.00
2022-08-16T06:17:42.693Z,23.10
2022-08-16T06:20:15.150Z,23.30
2022-08-16T06:22:58.872Z,23.40
2022-08-16T06:25:35.943Z,23.70
2022-08-16T06:28:08.765Z,23.90
2022-08-16T06:30:43.857Z,24.10
2022-08-16T06:33:19.850Z,24.30
2022-08-16T06:35:55.236Z,24.30
2022-08-16T06:38:33.959Z,24.50
2022-08-16T06:41:04.866Z,24.80
2022-08-16T06:43:34.690Z,25.00
2022-08-16T06:46:05.693Z,25.20
2022-08-16T06:48:35.044Z,25.40
2022-08-16T06:51:04.628Z,25.70
2022-08-16T06:53:36.392Z,25.90
2022-08-16T06:56:14.633Z,26.10
2022-08-16T06:58:51.535Z,26.20
2022-08-16T07:01:25.590Z,26.60
2022-08-16T07:04:10.348Z,26.80
2022-08-16T07:06:42.970Z,27.00
2022-08-16T07:09:12.228Z,27.20
2022-08-16T07:11:47.359Z,27.20
2022-08-16T07:14:24.509Z,27.40
2022-08-16T07:16:53.830Z,27.60
2022-08-16T07:19:23.245Z,27.70
2022-08-16T07:22:38.959Z,27.70
2022-08-16T07:24:59.674Z,28.00
2022-08-16T07:27:28.570Z,28.00
2022-08-16T07:30:00.345Z,28.00
2022-08-16T07:32:31.506Z,27.90
2022-08-16T07:35:01.410Z,28.40
2022-08-16T07:37:29.497Z,28.40
2022-08-16T07:39:58.139Z,28.50
2022-08-16T07:42:34.830Z,28.50
2022-08-16T07:45:03.597Z,28.30
2022-08-16T07:47:42.026Z,28.00
2022-08-16T07:50:56.394Z,28.50
2022-08-16T07:53:02.186Z,29.10
2022-08-16T07:55:45.718Z,29.70
2022-08-16T07:58:18.076Z,30.20
2022-08-16T08:00:46.789Z,30.70
2022-08-16T08:03:15.594Z,30.50
2022-08-16T08:05:45.024Z,30.90
2022-08-16T08:08:50.168Z,30.90
2022-08-16T08:11:08.998Z,30.70
2022-08-16T08:13:42.458Z,30.40
2022-08-16T08:16:18.415Z,30.30
2022-08-16T08:18:50.240Z,30.30
2022-08-16T08:21:48.737Z,30.40
2022-08-16T08:24:15.368Z,30.60
2022-08-16T08:26:43.641Z,30.80
2022-08-16T08:29:12.672Z,30.80
2022-08-16T08:31:43.779Z,30.80
2022-08-16T08:34:14.314Z,30.80
2022-08-16T08:36:48.633Z,31.00
2022-08-16T08:39:17.103Z,31.20
2022-08-16T08:41:49.318Z,31.40
2022-08-16T08:44:29.025Z,31.70
2022-08-16T08:47:01.582Z,32.10
2022-08-16T08:49:46.689Z,32.60
2022-08-16T08:52:34.152Z,33.10
2022-08-16T08:55:10.501Z,33.60
2022-08-16T08:57:43.268Z,34.00
2022-08-16T09:00:13.608Z,34.10
2022-08-16T09:02:44.334Z,34.30
2022-08-16T09:05:15.422Z,34.40
2022-08-16T09:08:01.821Z,34.60
2022-08-16T09:10:34.291Z,35.00
2022-08-16T09:13:08.148Z,35.40
2022-08-16T09:15:39.315Z,35.60
2022-08-16T09:18:26.251Z,35.90
2022-08-16T09:20:59.646Z,36.10
2022-08-16T09:23:36.296Z,36.30
2022-08-16T09:26:45.266Z,36.40
2022-08-16T09:29:17.069Z,36.50
2022-08-16T09:31:41.931Z,36.50
2022-08-16T09:34:10.852Z,36.60
2022-08-16T09:36:45.177Z,36.80
2022-08-16T09:39:17.903Z,36.90
2022-08-16T09:41:53.830Z,37.10
2022-08-16T09:45:11.655Z,37.20
2022-08-16T09:47:16.005Z,37.40
2022-08-16T09:49:44.454Z,37.60
2022-08-16T09:52:19.147Z,37.50
2022-08-16T09:54:51.821Z,37.40
2022-08-16T09:57:19.825Z,37.50
2022-08-16T09:59:56.163Z,37.70
2022-08-16T10:02:27.557Z,37.80
2022-08-16T10:04:57.101Z,37.90
2022-08-16T10:07:25.936Z,38.10
2022-08-16T10:09:56.485Z,38.20
2022-08-16T10:12:44.371Z,38.10
2022-08-16T10:15:15.517Z,38.30
2022-08-16T10:17:45.615Z,38.30
2022-08-16T10:20:34.116Z,38.00
2022-08-16T10:23:07.266Z,37.50
2022-08-16T10:27:18.492Z,37.40
2022-08-16T10:28:32.503Z,36.90
2022-08-16T10:31:12.001Z,36.70
2022-08-16T10:33:45.043Z,36.60
2022-08-16T10:36:38.846Z,36.30
2022-08-16T10:39:05.119Z,36.50
2022-08-16T10:41:38.040Z,36.90
2022-08-16T10:44:09.619Z,37.30
2022-08-16T10:46:42.209Z,37.60
2022-08-16T10:49:11.726Z,37.80
2022-08-16T10:52:01.404Z,37.70
2022-08-16T10:54:30.286Z,37.40
2022-08-16T10:57:01.237Z,36.60
2022-08-16T10:59:43.917Z,36.50
2022-08-16T11:03:00.577Z,36.90
2022-08-16T11:05:12.355Z,37.20
2022-08-16T11:07:45.593Z,37.50
2022-08-16T11:13:57.320Z,37.60
2022-08-16T11:19:05.955Z,36.60
2022-08-16T11:24:39.581Z,36.40
2022-08-16T11:27:36.048Z,36.30
2022-08-16T11:29:58.811Z,36.20
2022-08-16T11:32:32.479Z,36.10
2022-08-16T11:35:13.300Z,35.90
2022-08-16T11:40:37.793Z,35.60
2022-08-16T11:43:07.741Z,35.30
2022-08-16T11:45:42.430Z,35.20
2022-08-16T11:48:10.902Z,35.00
2022-08-16T11:50:39.012Z,34.70
2022-08-16T11:53:08.363Z,34.50
2022-08-16T11:55:38.516Z,34.40
2022-08-16T11:58:08.660Z,34.30
2022-08-16T12:00:51.668Z,34.00
2022-08-16T12:03:34.755Z,33.80
2022-08-16T12:06:11.122Z,33.70
2022-08-16T12:08:55.535Z,33.60
2022-08-16T12:11:24.052Z,33.50
2022-08-16T12:13:55.241Z,33.30
2022-08-16T12:16:24.645Z,33.40
2022-08-16T12:19:01.804Z,33.30
2022-08-16T12:21:36.034Z,33.10
2022-08-16T12:24:20.022Z,32.90
2022-08-16T12:26:48.349Z,32.70
2022-08-16T12:29:17.287Z,32.50
2022-08-16T12:32:01.300Z,32.40
2022-08-16T12:34:36.927Z,32.30
2022-08-16T12:37:10.403Z,32.20
2022-08-16T12:39:50.541Z,32.10
2022-08-16T12:42:20.849Z,32.00
2022-08-16T12:44:49.093Z,31.80
2022-08-16T12:47:37.711Z,31.90
2022-08-16T12:50:10.471Z,31.70
2022-08-16T12:52:52.143Z,31.60
2022-08-16T12:55:23.870Z,31.50
2022-08-16T12:58:06.045Z,31.40
2022-08-16T13:00:42.870Z,31.30
2022-08-16T13:03:12.757Z,31.20
2022-08-16T13:05:47.711Z,31.10
2022-08-16T13:08:27.580Z,31.00
2022-08-16T13:10:59.690Z,30.90
2022-08-16T13:13:29.612Z,31.00
2022-08-16T13:16:10.830Z,30.80
2022-08-16T13:18:52.330Z,30.70
2022-08-16T13:21:24.409Z,30.70
2022-08-16T13:23:55.551Z,30.70
2022-08-16T13:26:24.577Z,30.60
2022-08-16T13:28:54.770Z,30.60
2022-08-16T13:31:23.823Z,30.60
2022-08-16T13:33:58.495Z,30.50
2022-08-16T13:39:15.797Z,30.50
2022-08-16T13:41:44.257Z,30.60
2022-08-16T13:44:35.969Z,30.60
2022-08-16T13:47:10.838Z,30.60
2022-08-16T13:49:43.392Z,30.60
2022-08-16T13:52:12.363Z,30.60
2022-08-16T13:54:40.944Z,30.60
2022-08-16T13:57:11.655Z,30.60
2022-08-16T13:59:40.970Z,30.70
2022-08-16T14:02:11.331Z,30.70
2022-08-16T14:04:42.316Z,30.80
2022-08-16T14:07:12.510Z,30.80
2022-08-16T14:09:55.378Z,30.80
2022-08-16T14:12:27.170Z,30.70
2022-08-16T14:14:57.239Z,30.70
2022-08-16T14:17:26.767Z,30.70
2022-08-16T14:19:59.788Z,30.70
2022-08-16T14:22:35.897Z,30.70
2022-08-16T14:25:10.369Z,30.70
2022-08-16T14:27:42.146Z,30.70
2022-08-16T14:30:15.573Z,30.70
2022-08-16T14:32:46.938Z,30.70
2022-08-16T14:35:36.694Z,30.70
2022-08-16T14:38:13.462Z,30.70
2022-08-16T14:40:52.637Z,30.80
2022-08-16T14:43:21.360Z,30.80
2022-08-16T14:45:50.382Z,30.80
2022-08-16T14:48:25.177Z,30.80
2022-08-16T14:50:56.171Z,30.90
2022-08-16T14:53:25.665Z,30.90
2022-08-16T14:55:54.647Z,30.90
2022-08-16T14:58:34.480Z,30.90
2022-08-16T15:01:03.605Z,31.00
2022-08-16T15:03:32.984Z,31.00
2022-08-16T15:06:02.753Z,31.00
2022-08-16T15:08:36.501Z,31.00
2022-08-16T15:11:05.950Z,31.00
2022-08-16T15:13:35.985Z,31.00
2022-08-16T15:16:04.670Z,30.90
2022-08-16T15:18:33.476Z,30.90
2022-08-16T15:21:04.768Z,30.80
2022-08-16T15:23:34.357Z,30.70
2022-08-16T15:26:03.954Z,30.70
2022-08-16T15:28:33.122Z,30.70
2022-08-16T15:31:04.067Z,30.60
2022-08-16T15:33:34.966Z,30.50
2022-08-16T15:36:05.925Z,30.50
2022-08-16T15:39:02.230Z,30.50
2022-08-16T15:41:53.808Z,30.50
2022-08-16T15:44:26.926Z,30.40
2022-08-16T15:46:59.784Z,30.40
2022-08-16T15:49:37.156Z,30.40
2022-08-16T15:52:12.431Z,30.20
2022-08-16T15:54:53.220Z,30.10
2022-08-16T15:57:24.211Z,30.10
2022-08-16T15:59:56.174Z,30.10
2022-08-16T16:02:33.393Z,30.10
2022-08-16T16:05:04.648Z,30.00
2022-08-16T16:07:35.176Z,30.00
2022-08-16T16:10:06.030Z,30.00
2022-08-16T16:12:54.672Z,29.90
2022-08-16T16:15:25.878Z,30.00
2022-08-16T16:17:57.846Z,29.90
2022-08-16T16:20:28.622Z,29.90
2022-08-16T16:23:02.451Z,29.80
2022-08-16T16:25:33.193Z,29.70
2022-08-16T16:28:02.580Z,29.70
2022-08-16T16:30:38.056Z,29.60
2022-08-16T16:33:15.761Z,29.60
2022-08-16T16:35:55.348Z,29.50
2022-08-16T16:38:31.201Z,29.50
2022-08-16T16:41:00.600Z,29.40
2022-08-16T16:43:31.648Z,29.40
2022-08-16T16:46:40.265Z,29.40
2022-08-16T16:48:54.793Z,29.30
2022-08-16T16:51:24.495Z,29.30
2022-08-16T16:53:57.898Z,29.30
2022-08-16T16:56:31.420Z,29.30
2022-08-16T16:59:06.934Z,29.30
2022-08-16T17:01:59.920Z,29.20
2022-08-16T17:04:32.551Z,29.10
2022-08-16T17:07:02.445Z,29.20
2022-08-16T17:09:32.203Z,29.20
2022-08-16T17:12:04.044Z,29.20
2022-08-16T17:14:34.687Z,29.20
2022-08-16T17:17:06.870Z,29.10
2022-08-16T17:19:40.267Z,29.10
2022-08-16T17:22:14.070Z,29.10
2022-08-16T17:24:50.567Z,29.10
2022-08-16T17:27:32.198Z,29.10
2022-08-16T17:30:01.481Z,29.10
2022-08-16T17:32:34.088Z,29.10
2022-08-16T17:35:20.817Z,29.00
2022-08-16T17:37:51.496Z,29.00
2022-08-16T17:40:37.266Z,28.90
2022-08-16T17:43:13.320Z,28.90
2022-08-16T17:45:43.504Z,28.90
2022-08-16T17:48:11.594Z,28.80
2022-08-16T17:50:41.611Z,28.80
2022-08-16T17:53:11.846Z,28.70
2022-08-16T17:55:46.630Z,28.70
2022-08-16T17:58:22.214Z,28.60
2022-08-16T18:00:52.719Z,28.50
2022-08-16T18:04:06.161Z,28.50
2022-08-16T18:06:15.689Z,28.40
2022-08-16T18:08:43.927Z,28.30
2022-08-16T18:11:17.857Z,28.30
2022-08-16T18:13:46.314Z,28.20
2022-08-16T18:16:16.533Z,28.10
2022-08-16T18:18:46.064Z,28.10
2022-08-16T18:21:47.890Z,28.00
2022-08-16T18:24:16.175Z,28.00
2022-08-16T18:26:45.866Z,27.90
2022-08-16T18:29:16.118Z,27.80
2022-08-16T18:31:44.144Z,27.80
2022-08-16T18:34:12.173Z,27.70
2022-08-16T18:36:40.210Z,27.60
2022-08-16T18:39:08.237Z,27.50
2022-08-16T18:41:37.118Z,27.50
2022-08-16T18:44:26.538Z,27.40
2022-08-16T18:46:56.246Z,27.30
2022-08-16T18:49:24.303Z,27.20
2022-08-16T18:51:56.445Z,27.20
2022-08-16T18:54:24.544Z,27.10
2022-08-16T18:56:57.014Z,27.00
2022-08-16T18:59:28.825Z,27.00
2022-08-16T19:02:04.507Z,26.90
2022-08-16T19:04:55.606Z,26.90
2022-08-16T19:07:22.954Z,26.80
2022-08-16T19:09:57.857Z,26.70
2022-08-16T19:12:37.804Z,26.70
2022-08-16T19:15:14.165Z,26.60
2022-08-16T19:17:42.928Z,26.60
2022-08-16T19:20:12.288Z,26.50
2022-08-16T19:25:47.463Z,26.40
2022-08-16T19:28:47.692Z,26.30
2022-08-16T19:31:15.667Z,26.30
2022-08-16T19:33:53.836Z,26.20
2022-08-16T19:36:31.753Z,26.10
2022-08-16T19:39:05.237Z,26.10
2022-08-16T19:41:35.274Z,26.00
2022-08-16T19:44:03.861Z,26.00
2022-08-16T19:46:33.335Z,25.90
2022-08-16T19:49:01.414Z,25.90
2022-08-16T19:51:29.867Z,25.80
2022-08-16T19:53:57.932Z,25.80
2022-08-16T19:56:27.166Z,25.80
2022-08-16T19:59:18.866Z,25.70
2022-08-16T20:01:46.268Z,25.60
2022-08-16T20:04:14.554Z,25.60
2022-08-16T20:06:42.973Z,25.60
2022-08-16T20:09:14.828Z,25.50
2022-08-16T20:11:43.856Z,25.50
2022-08-16T20:14:12.239Z,25.40
2022-08-16T20:16:58.404Z,25.40
2022-08-16T20:19:27.280Z,25.30
2022-08-16T20:21:57.240Z,25.30
2022-08-16T20:24:35.050Z,25.20
2022-08-16T20:27:04.986Z,25.10
2022-08-16T20:29:33.030Z,25.10
2022-08-16T20:32:02.452Z,25.00
2022-08-16T20:34:30.504Z,25.00
2022-08-16T20:36:58.741Z,25.00
2022-08-16T20:39:26.800Z,24.90
2022-08-16T20:41:55.237Z,24.90
2022-08-16T20:44:25.058Z,24.80
2022-08-16T20:46:55.602Z,24.80
2022-08-16T20:49:24.998Z,24.80
2022-08-16T20:51:58.661Z,24.70
2022-08-16T20:54:27.938Z,24.70
2022-08-16T20:56:56.398Z,24.70
2022-08-16T20:59:24.500Z,24.60
2022-08-16T21:01:53.138Z,24.60
2022-08-16T21:04:23.397Z,24.60
2022-08-16T21:06:55.065Z,24.50
2022-08-16T21:09:24.964Z,24.50
2022-08-16T21:11:54.690Z,24.40
2022-08-16T21:14:22.973Z,24.40
2022-08-16T21:16:51.348Z,24.40
2022-08-16T21:19:19.478Z,24.30
2022-08-16T21:21:47.888Z,24.30
2022-08-16T21:24:17.986Z,24.20
2022-08-16T21:26:55.198Z,24.20
2022-08-16T21:29:27.911Z,24.20
2022-08-16T21:32:13.609Z,24.10
2022-08-16T21:34:42.634Z,24.10
2022-08-16T21:37:10.710Z,24.10
2022-08-16T21:39:40.508Z,24.00
2022-08-16T21:42:10.389Z,24.00
2022-08-16T21:44:40.990Z,24.00
2022-08-16T21:47:09.897Z,24.00
2022-08-16T21:49:38.274Z,24.00
2022-08-16T21:52:08.657Z,23.90
2022-08-16T21:54:37.616Z,23.90
2022-08-16T21:57:10.725Z,23.80
2022-08-16T21:59:41.475Z,23.90
2022-08-16T22:02:09.648Z,23.80
2022-08-16T22:04:39.158Z,23.70
2022-08-16T22:07:07.965Z,23.70
2022-08-16T22:09:36.030Z,23.70
2022-08-16T22:12:04.485Z,23.70
2022-08-16T22:14:33.873Z,23.70
2022-08-16T22:17:02.335Z,23.60
2022-08-16T22:19:30.897Z,23.60
2022-08-16T22:22:01.291Z,23.60
2022-08-16T22:24:29.883Z,23.50
2022-08-16T22:26:58.100Z,23.50
2022-08-16T22:29:26.137Z,23.50
2022-08-16T22:31:55.534Z,23.40
2022-08-16T22:34:23.714Z,23.40
2022-08-16T22:36:51.709Z,23.40
2022-08-16T22:39:19.716Z,23.30
2022-08-16T22:41:49.763Z,23.30
2022-08-16T22:44:18.612Z,23.20
2022-08-16T22:46:46.746Z,23.20
2022-08-16T22:49:16.263Z,23.10
2022-08-16T22:51:44.325Z,23.10
2022-08-16T22:54:44.265Z,23.00
2022-08-16T22:57:03.908Z,23.00
2022-08-16T22:59:32.035Z,22.90
2022-08-16T23:02:04.097Z,22.90
2022-08-16T23:04:33.967Z,22.80
2022-08-16T23:07:02.365Z,22.80
2022-08-16T23:09:32.599Z,22.70
2022-08-16T23:12:03.890Z,22.70
2022-08-16T23:14:32.855Z,22.70
2022-08-16T23:17:01.309Z,22.70
2022-08-16T23:19:29.511Z,22.60
2022-08-16T23:22:00.964Z,22.60
2022-08-16T23:24:29.037Z,22.60
2022-08-16T23:27:05.172Z,22.60
2022-08-16T23:29:33.286Z,22.50
2022-08-16T23:32:13.153Z,22.50
2022-08-16T23:34:41.154Z,22.50
2022-08-16T23:37:10.785Z,22.50
2022-08-16T23:39:39.165Z,22.40
2022-08-16T23:42:13.505Z,22.40
2022-08-16T23:44:55.923Z,22.40
2022-08-16T23:47:25.619Z,22.30
2022-08-16T23:49:59.914Z,22.30
2022-08-16T23:52:40.659Z,22.30
2022-08-16T23:55:20.582Z,22.20
2022-08-16T23:57:48.759Z,22.20
